Time;durP1;ratioP1;P1;durP2;ratioP2;P2;SDS_P1;SDS_P2;PMS_P1;PMS_P2;Temp;Humidity;BMP_temperature;BMP_pressure;BME280_temperature;BME280_humidity;BME280_pressure;Samples;Min_cycle;Max_cycle;Signal;HPM_P1;HPM_P2
2023/01/20 00:02:15;;;;;;;0.10;0.10;;;;;;;;;;4820622;29;20037;-88
2023/01/20 00:04:41;;;;;;;0.10;0.10;;;;;;;;;;4835021;29;20037;-88
2023/01/20 00:07:07;;;;;;;0.10;0.10;;;;;;;;;;4838765;29;20036;-88
2023/01/20 00:09:33;;;;;;;0.10;0.10;;;;;;;;;;4838496;29;20057;-88
2023/01/20 00:11:59;;;;;;;0.10;0.10;;;;;;;;;;4824236;29;20133;-88
2023/01/20 00:14:26;;;;;;;0.10;0.10;;;;;;;;;;4819762;29;20030;-88
2023/01/20 00:16:52;;;;;;;0.03;0.03;;;;;;;;;;4826816;29;20037;-88
2023/01/20 00:19:18;;;;;;;0.10;0.10;;;;;;;;;;4834771;29;20037;-87
2023/01/20 00:21:44;;;;;;;0.05;0.05;;;;;;;;;;4832043;29;20038;-88
2023/01/20 00:24:10;;;;;;;0.08;0.08;;;;;;;;;;4839469;29;20113;-88
2023/01/20 00:26:36;;;;;;;0.08;0.08;;;;;;;;;;4837137;29;20054;-87
2023/01/20 00:29:02;;;;;;;0.10;0.10;;;;;;;;;;4834118;29;20543;-88
2023/01/20 00:31:29;;;;;;;0.10;0.10;;;2.80;99.90;;;;;;4824778;29;20086;-88
2023/01/20 00:33:57;;;;;;;0.10;0.10;;;2.90;99.90;;;;;;4826815;29;20488;-88
2023/01/20 00:36:24;;;;;;;0.10;0.10;;;2.90;99.90;;;;;;4824376;29;20029;-88
2023/01/20 00:38:50;;;;;;;0.10;0.10;;;;;;;;;;4824712;29;20046;-87
2023/01/20 00:41:16;;;;;;;0.05;0.05;;;;;;;;;;4835878;29;20468;-88
2023/01/20 00:43:43;;;;;;;0.10;0.10;;;;;;;;;;4840616;29;20175;-89
2023/01/20 00:46:09;;;;;;;0.00;0.00;;;;;;;;;;4834948;29;20125;-88
2023/01/20 00:48:35;;;;;;;0.10;0.10;;;;;;;;;;4835785;29;20034;-88
2023/01/20 00:51:01;;;;;;;0.10;0.10;;;;;;;;;;4816828;29;20041;-87
2023/01/20 00:53:27;;;;;;;0.10;0.10;;;;;;;;;;4838180;29;20037;-88
2023/01/20 00:55:53;;;;;;;0.00;0.00;;;;;;;;;;4834400;29;20034;-87
2023/01/20 00:58:19;;;;;;;0.10;0.10;;;;;;;;;;4838819;29;20033;-89
2023/01/20 01:00:50;;;;;;;0.10;0.10;;;2.90;99.90;;;;;;4822275;29;20170;-88
2023/01/20 01:03:15;;;;;;;0.10;0.10;;;2.80;99.90;;;;;;4833725;29;20111;-88
2023/01/20 01:05:42;;;;;;;0.10;0.10;;;;;;;;;;4838460;29;20038;-87
2023/01/20 01:08:08;;;;;;;0.10;0.10;;;2.90;99.90;;;;;;4837607;29;20038;-88
2023/01/20 01:10:33;;;;;;;0.10;0.10;;;3.00;99.90;;;;;;4824669;29;20182;-89
2023/01/20 01:13:00;;;;;;;0.10;0.10;;;3.00;99.90;;;;;;4838713;29;20045;-88
2023/01/20 01:15:27;;;;;;;0.10;0.10;;;;;;;;;;4836030;29;20460;-88
2023/01/20 01:17:53;;;;;;;0.00;0.00;;;;;;;;;;4825683;29;20030;-89
2023/01/20 01:20:19;;;;;;;0.10;0.10;;;;;;;;;;4837808;29;20160;-89
2023/01/20 01:22:45;;;;;;;0.00;0.00;;;;;;;;;;4840765;29;20120;-90
2023/01/20 01:25:11;;;;;;;0.10;0.10;;;;;;;;;;4840125;29;20034;-88
2023/01/20 01:27:36;;;;;;;0.00;0.00;;;;;;;;;;4840577;29;20060;-88
2023/01/20 01:30:03;;;;;;;0.10;0.10;;;2.90;99.90;;;;;;4840361;29;20445;-87
2023/01/20 01:32:29;;;;;;;0.00;0.00;;;;;;;;;;4841980;29;20057;-88
2023/01/20 01:34:55;;;;;;;0.10;0.10;;;;;;;;;;4826850;29;20081;-87
2023/01/20 01:37:21;;;;;;;0.10;0.10;;;;;;;;;;4838848;29;20444;-87
2023/01/20 01:39:47;;;;;;;0.00;0.00;;;;;;;;;;4837354;29;20058;-87
2023/01/20 01:42:17;;;;;;;0.10;0.10;;;2.90;99.90;;;;;;4837762;29;20041;-88
2023/01/20 01:45:22;;;;;;;0.10;0.10;;;2.60;99.90;;;;;;4841993;29;20034;-87
2023/01/20 01:47:57;;;;;;;0.10;0.10;;;3.00;99.90;;;;;;4836643;29;20491;-87
2023/01/20 01:50:33;;;;;;;0.10;0.10;;;3.00;99.90;;;;;;4841837;29;20125;-88
2023/01/20 01:52:59;;;;;;;0.10;0.10;;;3.00;99.90;;;;;;4838280;29;20406;-88
2023/01/20 01:55:28;;;;;;;0.10;0.10;;;2.90;99.90;;;;;;4826385;29;20558;-87
2023/01/20 01:57:57;;;;;;;0.10;0.10;;;2.60;99.90;;;;;;4840356;29;20068;-87
2023/01/20 02:00:23;;;;;;;0.10;0.10;;;;;;;;;;4839067;29;20114;-88
2023/01/20 02:02:49;;;;;;;0.10;0.10;;;3.00;99.90;;;;;;4826444;29;20091;-87
2023/01/20 02:05:15;;;;;;;0.10;0.10;;;;;;;;;;4841351;29;20034;-89
2023/01/20 02:07:44;;;;;;;0.10;0.10;;;2.80;99.90;;;;;;4818476;29;20128;-87
2023/01/20 02:10:10;;;;;;;0.10;0.10;;;;;;;;;;4842912;29;20162;-88
2023/01/20 02:12:36;;;;;;;0.10;0.10;;;;;;;;;;4838161;29;20034;-88
2023/01/20 02:15:03;;;;;;;0.05;0.05;;;2.80;99.90;;;;;;4840696;29;20564;-88
2023/01/20 02:17:38;;;;;;;0.10;0.10;;;2.80;99.90;;;;;;4823951;29;20487;-89
2023/01/20 02:20:22;;;;;;;0.10;0.10;;;2.60;99.90;;;;;;4822972;29;20037;-88
2023/01/20 02:23:15;;;;;;;0.10;0.10;;;2.70;99.90;;;;;;4830734;29;20098;-88
2023/01/20 02:25:43;;;;;;;0.10;0.10;;;3.00;99.90;;;;;;4825614;29;20030;-88
2023/01/20 02:28:27;;;;;;;0.10;0.10;;;5.00;99.90;;;;;;4834405;29;20090;-88
2023/01/20 02:31:23;;;;;;;0.10;0.10;;;3.00;99.90;;;;;;4840365;29;20415;-88
2023/01/20 02:34:03;;;;;;;0.10;0.10;;;3.00;99.90;;;;;;4821472;29;20063;-87
2023/01/20 02:36:38;;;;;;;;;;;2.60;99.90;;;;;;4838901;29;20029;-88
2023/01/20 02:39:35;;;;;;;0.10;0.10;;;2.90;99.90;;;;;;4834046;29;19928;-89
2023/01/20 02:42:08;;;;;;;0.10;0.10;;;2.90;99.90;;;;;;4815573;29;20203;-88
2023/01/20 02:44:41;;;;;;;0.10;0.10;;;2.90;99.90;;;;;;4839791;29;20068;-88
2023/01/20 02:47:30;;;;;;;0.10;0.10;;;2.90;99.90;;;;;;4825430;29;20071;-88
2023/01/20 02:50:11;;;;;;;0.10;0.10;;;2.90;99.90;;;;;;4832824;29;20037;-88
2023/01/20 02:52:55;;;;;;;0.10;0.10;;;2.70;99.90;;;;;;4832449;29;20188;-88
2023/01/20 02:55:32;;;;;;;0.10;0.10;;;3.10;99.90;;;;;;4835542;29;20030;-88
2023/01/20 02:58:03;;;;;;;0.10;0.10;;;3.10;99.90;;;;;;4818095;29;20042;-88
2023/01/20 03:00:35;;;;;;;0.00;0.00;;;2.50;99.90;;;;;;4825104;29;20491;-88
2023/01/20 03:03:05;;;;;;;0.10;0.10;;;3.10;99.90;;;;;;4825444;29;20474;-88
2023/01/20 03:05:34;;;;;;;0.10;0.10;;;3.10;99.90;;;;;;4823512;29;20030;-89
2023/01/20 03:08:04;;;;;;;0.03;0.03;;;3.00;99.90;;;;;;4817930;29;20043;-87
2023/01/20 03:10:33;;;;;;;0.10;0.10;;;2.90;99.90;;;;;;4826439;29;20128;-88
2023/01/20 03:13:07;;;;;;;0.10;0.10;;;2.80;99.90;;;;;;4822938;29;20148;-89
2023/01/20 03:15:56;;;;;;;0.10;0.10;;;3.00;99.90;;;;;;4836863;29;20532;-88
2023/01/20 03:18:23;;;;;;;0.10;0.10;;;2.20;99.90;;;;;;4818613;29;20367;-88
2023/01/20 03:20:49;;;;;;;0.05;0.05;;;;;;;;;;4836623;29;20063;-88
2023/01/20 03:23:15;;;;;;;0.00;0.00;;;;;;;;;;4839376;29;20034;-88
2023/01/20 03:25:44;;;;;;;0.10;0.10;;;3.00;99.90;;;;;;4840317;29;20089;-88
2023/01/20 03:28:10;;;;;;;0.10;0.10;;;;;;;;;;4839887;29;20046;-88
2023/01/20 03:30:36;;;;;;;0.10;0.10;;;;;;;;;;4837148;29;20110;-88
2023/01/20 03:33:02;;;;;;;0.10;0.10;;;3.00;99.90;;;;;;4836246;29;20105;-88
2023/01/20 03:35:28;;;;;;;0.10;0.10;;;;;;;;;;4836584;29;20037;-88
2023/01/20 03:37:55;;;;;;;0.10;0.10;;;;;;;;;;4836317;29;21898;-88
2023/01/20 03:40:25;;;;;;;0.10;0.10;;;3.00;99.90;;;;;;4833813;29;20407;-88
2023/01/20 03:43:23;;;;;;;0.10;0.10;;;3.00;99.90;;;;;;4822451;29;20398;-89
2023/01/20 03:46:03;;;;;;;0.10;0.10;;;3.10;99.90;;;;;;4801747;29;20042;-88
2023/01/20 03:48:57;;;;;;;0.10;0.10;;;3.10;99.90;;;;;;4834829;29;20057;-90
2023/01/20 03:51:32;;;;;;;0.10;0.10;;;3.20;99.90;;;;;;4833819;29;20022;-88
2023/01/20 03:54:08;;;;;;;0.00;0.00;;;3.10;99.90;;;;;;4822980;29;20086;-88
2023/01/20 03:56:42;;;;;;;0.10;0.10;;;3.10;99.90;;;;;;4836333;29;20029;-88
2023/01/20 03:59:11;;;;;;;0.10;0.10;;;2.80;99.90;;;;;;4833851;29;20066;-88
2023/01/20 04:01:41;;;;;;;0.10;0.10;;;3.00;99.90;;;;;;4835808;29;20029;-88
2023/01/20 04:04:11;;;;;;;0.10;0.10;;;3.00;99.90;;;;;;4835905;29;20037;-88
2023/01/20 04:06:39;;;;;;;0.10;0.10;;;2.90;99.90;;;;;;4819061;29;20054;-88
2023/01/20 04:09:09;;;;;;;0.10;0.10;;;2.80;99.90;;;;;;4836123;29;20503;-87
2023/01/20 04:11:35;;;;;;;0.10;0.10;;;2.80;99.90;;;;;;4837961;29;20052;-89
2023/01/20 04:14:01;;;;;;;0.10;0.10;;;2.80;99.90;;;;;;4822141;29;20038;-89
2023/01/20 04:16:26;;;;;;;0.10;0.10;;;;;;;;;;4836057;29;20030;-89
2023/01/20 04:18:53;;;;;;;0.10;0.10;;;;;;;;;;4837412;29;20555;-87
2023/01/20 04:21:30;;;;;;;0.10;0.10;;;2.80;99.90;;;;;;4831516;29;20113;-89
2023/01/20 04:24:07;;;;;;;0.00;0.00;;;2.80;99.90;;;;;;4819724;29;20034;-88
2023/01/20 04:26:33;;;;;;;0.10;0.10;;;;;;;;;;4833204;29;20399;-89
2023/01/20 04:29:07;;;;;;;0.00;0.00;;;;;;;;;;4832651;29;20042;-89
2023/01/20 04:31:32;;;;;;;0.00;0.00;;;;;;;;;;4833747;29;20407;-87
2023/01/20 04:33:58;;;;;;;0.08;0.08;;;2.80;99.90;;;;;;4832377;29;20125;-88
2023/01/20 04:36:24;;;;;;;0.10;0.10;;;;;;;;;;4835532;29;20034;-88
2023/01/20 04:38:50;;;;;;;0.10;0.10;;;;;;;;;;4832082;29;20509;-88
2023/01/20 04:41:15;;;;;;;0.10;0.10;;;3.00;99.90;;;;;;4838173;29;20049;-89
2023/01/20 04:43:43;;;;;;;0.10;0.10;;;2.90;99.90;;;;;;4817221;29;20094;-88
2023/01/20 04:46:10;;;;;;;0.10;0.10;;;2.90;99.90;;;;;;4836478;29;20050;-87
2023/01/20 04:48:36;;;;;;;0.10;0.10;;;;;;;;;;4819010;29;20050;-88
2023/01/20 04:51:06;;;;;;;0.10;0.10;;;2.70;99.90;;;;;;4836261;29;20867;-89
2023/01/20 04:53:33;;;;;;;0.10;0.10;;;;;;;;;;4835071;29;20034;-88
2023/01/20 04:55:58;;;;;;;0.10;0.10;;;;;;;;;;4828655;29;20042;-89
2023/01/20 04:58:25;;;;;;;0.10;0.10;;;;;;;;;;4828156;29;20038;-89
2023/01/20 05:00:51;;;;;;;0.08;0.08;;;;;;;;;;4839113;29;20030;-88
2023/01/20 05:03:17;;;;;;;0.00;0.00;;;;;;;;;;4837281;29;20026;-89
2023/01/20 05:05:42;;;;;;;0.10;0.10;;;;;;;;;;4837069;29;20034;-88
2023/01/20 05:08:08;;;;;;;0.10;0.10;;;;;;;;;;4839355;29;20767;-89
2023/01/20 05:10:34;;;;;;;0.08;0.08;;;;;;;;;;4838127;29;20049;-88
2023/01/20 05:13:01;;;;;;;0.10;0.10;;;;;;;;;;4837945;29;20046;-87
2023/01/20 05:15:27;;;;;;;0.00;0.00;;;2.00;99.90;;;;;;4841133;29;20053;-88
2023/01/20 05:17:53;;;;;;;0.10;0.10;;;;;;;;;;4836456;29;20044;-89
2023/01/20 05:20:19;;;;;;;0.00;0.00;;;;;;;;;;4839496;29;20026;-87
2023/01/20 05:22:45;;;;;;;0.10;0.10;;;;;;;;;;4827813;29;20040;-87
2023/01/20 05:25:11;;;;;;;0.10;0.10;;;2.00;99.90;;;;;;4824882;29;20475;-87
2023/01/20 05:27:36;;;;;;;0.10;0.10;;;1.90;99.90;;;;;;4824047;29;20082;-88
2023/01/20 05:30:06;;;;;;;0.10;0.10;;;1.80;99.90;;;;;;4825740;29;20045;-88
2023/01/20 05:32:31;;;;;;;0.10;0.10;;;1.90;99.90;;;;;;4828823;29;20499;-89
2023/01/20 05:34:57;;;;;;;0.10;0.10;;;1.90;99.90;;;;;;4824701;29;20061;-88
2023/01/20 05:37:23;;;;;;;0.10;0.10;;;;;;;;;;4837409;29;20030;-88
2023/01/20 05:39:49;;;;;;;0.10;0.10;;;;;;;;;;4841208;29;20033;-88
2023/01/20 05:42:14;;;;;;;0.00;0.00;;;1.40;99.90;;;;;;4837936;29;20033;-88
2023/01/20 10:25:32;;;;;;;0.10;0.10;;;3.20;99.90;;;;;;4864681;29;20996;-90
2023/01/20 10:28:21;;;;;;;0.10;0.10;;;3.30;99.90;;;;;;4856870;29;20325;-88
2023/01/20 10:30:47;;;;;;;0.10;0.10;;;;;;;;;;4857890;29;20491;-89
2023/01/20 10:33:20;;;;;;;0.10;0.10;;;3.50;99.90;;;;;;4854899;29;20030;-88
2023/01/20 10:35:50;;;;;;;0.20;0.20;;;3.70;99.90;;;;;;4837345;29;20157;-88
2023/01/20 10:38:37;;;;;;;0.10;0.10;;;3.60;99.90;;;;;;4849121;29;20045;-89
2023/01/20 10:41:19;;;;;;;0.10;0.10;;;3.80;99.90;;;;;;4840170;29;20033;-89
2023/01/20 10:43:45;;;;;;;0.10;0.10;;;;;;;;;;4834961;29;20064;-88
2023/01/20 10:46:33;;;;;;;0.10;0.10;;;3.90;99.90;;;;;;4838940;29;20063;-88
2023/01/20 10:48:59;;;;;;;0.10;0.10;;;;;;;;;;4855362;29;20061;-88
2023/01/20 10:51:38;;;;;;;0.13;0.13;;;4.00;99.90;;;;;;4838599;29;20443;-87
2023/01/20 10:54:24;;;;;;;0.10;0.10;;;4.20;99.90;;;;;;4839837;29;20088;-89
2023/01/20 10:56:54;;;;;;;0.10;0.10;;;4.20;99.90;;;;;;4854035;29;20052;-87
2023/01/20 10:59:24;;;;;;;0.10;0.10;;;4.40;99.90;;;;;;4855837;29;20031;-88
2023/01/20 11:01:52;;;;;;;0.10;0.10;;;5.00;99.90;;;;;;4837034;29;20045;-87
2023/01/20 11:04:20;;;;;;;0.10;0.10;;;4.60;99.90;;;;;;4836815;29;20044;-91
2023/01/20 11:06:54;;;;;;;0.10;0.10;;;4.70;99.90;;;;;;4835043;29;20040;-87
2023/01/20 11:09:28;;;;;;;0.10;0.10;;;4.70;99.90;;;;;;4838942;29;20418;-87
2023/01/20 11:11:54;;;;;;;0.10;0.10;;;;;;;;;;4835030;29;20057;-89
2023/01/20 11:14:20;;;;;;;0.10;0.10;;;;;;;;;;4852013;29;20579;-90
2023/01/20 11:16:50;;;;;;;0.10;0.10;;;4.80;99.90;;;;;;4840771;29;20085;-87
2023/01/20 11:19:16;;;;;;;0.10;0.10;;;;;;;;;;4835605;29;20119;-89
2023/01/20 11:21:41;;;;;;;0.10;0.10;;;;;;;;;;4843204;29;20075;-88
2023/01/20 11:24:42;;;;;;;0.10;0.10;;;4.90;99.90;;;;;;4834168;29;20045;-88
2023/01/20 11:27:15;;;;;;;0.10;0.10;;;5.00;99.90;;;;;;4840478;29;20091;-87
2023/01/20 11:29:45;;;;;;;0.00;0.00;;;5.10;99.90;;;;;;4837066;29;20034;-87
2023/01/20 11:32:29;;;;;;;;;;;5.00;99.90;;;;;;4840070;29;20490;-87
2023/01/20 11:34:56;;;;;;;0.10;0.10;;;5.20;99.90;;;;;;4843083;29;19916;-87
2023/01/20 11:37:34;;;;;;;0.10;0.10;;;5.20;99.90;;;;;;4858726;29;20028;-88
2023/01/20 11:40:03;;;;;;;0.10;0.10;;;5.20;99.90;;;;;;4846867;29;20108;-88
2023/01/20 11:42:44;;;;;;;0.10;0.10;;;5.30;99.90;;;;;;4842216;29;20126;-88
2023/01/20 11:45:23;;;;;;;0.10;0.10;;;5.40;99.90;;;;;;4858297;29;20030;-87
2023/01/20 11:48:01;;;;;;;0.10;0.10;;;5.40;99.90;;;;;;4856929;29;20041;-88
2023/01/20 11:50:39;;;;;;;0.10;0.10;;;5.40;99.90;;;;;;4839844;29;20125;-88
2023/01/20 11:53:25;;;;;;;0.10;0.10;;;5.40;99.90;;;;;;4852594;29;20112;-87
2023/01/20 11:55:52;;;;;;;0.10;0.10;;;5.40;99.90;;;;;;4840838;29;20037;-88
2023/01/20 11:58:23;;;;;;;0.10;0.10;;;5.40;99.90;;;;;;4843784;29;20017;-89
2023/01/20 12:01:01;;;;;;;0.10;0.10;;;5.40;99.90;;;;;;4842420;29;20403;-88
2023/01/20 12:03:51;;;;;;;0.10;0.10;;;5.40;99.90;;;;;;4844389;29;20052;-86
2023/01/20 12:06:22;;;;;;;;;;;5.50;99.90;;;;;;4841850;29;20033;-90
2023/01/20 12:09:08;;;;;;;0.00;0.00;;;5.60;99.90;;;;;;4851211;29;19912;-87
2023/01/20 12:11:40;;;;;;;0.10;0.10;;;5.40;99.90;;;;;;4839284;29;20033;-89
2023/01/20 12:14:24;;;;;;;0.10;0.10;;;5.40;99.90;;;;;;4833687;29;20411;-89
2023/01/20 12:17:01;;;;;;;0.10;0.10;;;5.50;99.90;;;;;;4835418;29;20037;-88
2023/01/20 12:19:51;;;;;;;0.05;0.05;;;5.40;99.90;;;;;;4844676;29;20025;-90
2023/01/20 12:22:23;;;;;;;0.10;0.10;;;5.40;99.90;;;;;;4838198;29;20706;-90
2023/01/20 12:25:07;;;;;;;0.10;0.10;;;;;;;;;;4825271;29;20049;-89
2023/01/20 12:27:33;;;;;;;0.10;0.10;;;;;;;;;;4853709;29;20093;-89
2023/01/20 12:30:06;;;;;;;0.10;0.10;;;5.50;99.90;;;;;;4834378;29;20038;-89
2023/01/20 12:32:32;;;;;;;0.10;0.10;;;;;;;;;;4836721;29;20104;-89
2023/01/20 12:34:58;;;;;;;0.10;0.10;;;;;;;;;;4834916;29;20348;-91
2023/01/20 12:37:49;;;;;;;0.10;0.10;;;5.50;99.90;;;;;;4845238;29;20030;-90
2023/01/20 12:40:49;;;;;;;0.10;0.10;;;5.20;99.90;;;;;;4837716;29;20033;-88
2023/01/20 12:43:30;;;;;;;;;;;5.30;99.90;;;;;;4809350;29;20119;-87
2023/01/20 12:46:34;;;;;;;0.10;0.10;;;5.50;99.90;;;;;;4836801;29;20393;-89
2023/01/20 12:49:35;;;;;;;0.10;0.10;;;5.50;99.90;;;;;;4852979;29;20037;-89
2023/01/20 12:52:25;;;;;;;0.10;0.10;;;5.50;99.90;;;;;;4837343;29;20104;-91
2023/01/20 12:55:20;;;;;;;0.13;0.13;;;5.40;99.90;;;;;;4840705;29;20030;-89
2023/01/20 12:57:46;;;;;;;0.10;0.10;;;;;;;;;;4836065;29;20659;-89
2023/01/20 13:00:22;;;;;;;0.10;0.10;;;5.20;99.90;;;;;;4833495;29;20121;-89
2023/01/20 13:03:20;;;;;;;0.10;0.10;;;5.30;99.90;;;;;;4836929;29;20114;-89
2023/01/20 13:06:07;;;;;;;0.10;0.10;;;5.30;99.90;;;;;;4827142;29;20056;-89
2023/01/20 13:08:49;;;;;;;0.10;0.10;;;5.30;99.90;;;;;;4851380;29;20050;-89
2023/01/20 13:11:46;;;;;;;0.10;0.10;;;5.20;99.90;;;;;;4843279;29;20029;-89
2023/01/20 13:14:21;;;;;;;0.10;0.10;;;5.20;99.90;;;;;;4855644;29;20380;-88
2023/01/20 13:17:19;;;;;;;0.10;0.10;;;5.20;99.90;;;;;;4836262;29;20053;-90
2023/01/20 13:19:53;;;;;;;0.10;0.10;;;5.30;99.90;;;;;;4843397;29;20026;-92
2023/01/20 13:22:21;;;;;;;0.03;0.03;;;5.40;99.90;;;;;;4842373;29;20061;-88
2023/01/20 13:24:51;;;;;;;0.10;0.10;;;5.50;99.90;;;;;;4843291;29;20037;-88
2023/01/20 13:27:27;;;;;;;0.20;0.20;;;5.40;99.90;;;;;;4839613;29;20038;-89
2023/01/20 13:29:56;;;;;;;0.10;0.10;;;5.20;99.90;;;;;;4837323;29;20117;-90
2023/01/20 13:32:28;;;;;;;0.10;0.10;;;5.10;99.90;;;;;;4835755;29;20125;-89
2023/01/20 13:34:54;;;;;;;0.10;0.10;;;;;;;;;;4840198;29;20038;-89
2023/01/20 13:37:38;;;;;;;0.10;0.10;;;5.00;99.90;;;;;;4857070;29;20026;-90
2023/01/20 13:40:36;;;;;;;0.10;0.10;;;4.90;99.90;;;;;;4838752;29;20029;-89
2023/01/20 13:43:30;;;;;;;0.10;0.10;;;5.00;99.90;;;;;;4843349;29;20559;-89
2023/01/20 13:46:02;;;;;;;0.10;0.10;;;5.00;99.90;;;;;;4836080;29;20065;-89
2023/01/20 13:48:31;;;;;;;0.10;0.10;;;4.90;99.90;;;;;;4844833;29;20025;-89
2023/01/20 13:51:15;;;;;;;0.10;0.10;;;5.00;99.90;;;;;;4841526;29;20089;-88
2023/01/20 13:53:42;;;;;;;0.10;0.10;;;5.00;99.90;;;;;;4840619;29;20384;-88
2023/01/20 13:56:24;;;;;;;0.10;0.10;;;4.90;99.90;;;;;;4839715;29;20057;-90
2023/01/20 13:58:49;;;;;;;0.10;0.10;;;;;;;;;;4836719;29;20038;-88
2023/01/20 14:01:15;;;;;;;0.10;0.10;;;;;;;;;;4856109;29;20399;-89
2023/01/20 14:03:41;;;;;;;0.03;0.03;;;4.80;99.90;;;;;;4842005;29;20487;-88
2023/01/20 14:07:11;;;;;;;0.10;0.10;;;5.00;99.90;;;;;;4838263;29;20045;-88
2023/01/20 14:09:38;;;;;;;0.10;0.10;;;;;;;;;;4837170;29;20055;-88
2023/01/20 14:12:16;;;;;;;0.10;0.10;;;5.00;99.90;;;;;;4844137;29;20072;-88
2023/01/20 14:14:46;;;;;;;0.10;0.10;;;;;;;;;;4843983;29;20085;-90
2023/01/20 14:17:24;;;;;;;0.10;0.10;;;5.00;99.90;;;;;;4839292;29;20034;-88
2023/01/20 14:19:55;;;;;;;0.10;0.10;;;5.00;99.90;;;;;;4841974;29;20029;-87
2023/01/20 14:22:30;;;;;;;0.10;0.10;;;5.00;99.90;;;;;;4839771;29;20029;-90
2023/01/20 14:24:58;;;;;;;0.10;0.10;;;5.00;99.90;;;;;;4842664;29;20077;-87
2023/01/20 14:27:30;;;;;;;0.10;0.10;;;5.00;99.90;;;;;;4835142;29;20128;-89
2023/01/20 14:30:11;;;;;;;0.10;0.10;;;4.90;99.90;;;;;;4838749;29;20103;-88
2023/01/20 14:32:36;;;;;;;;;;;4.90;99.90;;;;;;4841143;29;20034;-88
2023/01/20 14:35:15;;;;;;;0.10;0.10;;;4.70;99.90;;;;;;4836823;29;19920;-88
2023/01/20 14:37:41;;;;;;;0.10;0.10;;;;;;;;;;4836879;29;20514;-89
2023/01/20 14:40:29;;;;;;;0.08;0.08;;;4.80;99.90;;;;;;4852191;29;20722;-88
2023/01/20 14:43:14;;;;;;;0.10;0.10;;;4.80;99.90;;;;;;4840156;29;20041;-88
2023/01/20 14:45:44;;;;;;;0.00;0.00;;;4.80;99.90;;;;;;4839103;29;20124;-88
2023/01/20 14:48:11;;;;;;;0.20;0.20;;;4.70;99.90;;;;;;4837622;29;20084;-88
2023/01/20 14:50:38;;;;;;;0.10;0.10;;;4.70;99.90;;;;;;4853102;29;20046;-88
2023/01/20 14:53:04;;;;;;;0.10;0.10;;;4.70;99.90;;;;;;4837828;29;20451;-88
2023/01/20 14:55:35;;;;;;;0.10;0.10;;;4.80;99.90;;;;;;4833283;29;20029;-88
2023/01/20 14:58:15;;;;;;;0.10;0.10;;;5.70;99.90;;;;;;4837058;29;20560;-87
2023/01/20 15:00:43;;;;;;;0.10;0.10;;;4.70;99.90;;;;;;4839426;29;20036;-88
2023/01/20 15:03:17;;;;;;;0.10;0.10;;;4.70;99.90;;;;;;4837550;29;20064;-87
2023/01/20 15:06:09;;;;;;;0.10;0.10;;;4.70;99.90;;;;;;4860574;29;20029;-87
2023/01/20 15:08:35;;;;;;;0.10;0.10;;;4.70;99.90;;;;;;4840568;29;20048;-87
2023/01/20 15:11:17;;;;;;;0.10;0.10;;;4.50;99.90;;;;;;4850898;29;20033;-89
2023/01/20 15:14:00;;;;;;;0.10;0.10;;;4.50;99.90;;;;;;4837092;29;20034;-87
2023/01/20 15:16:27;;;;;;;0.00;0.00;;;4.50;99.90;;;;;;4835996;29;20037;-89
2023/01/20 15:19:11;;;;;;;0.10;0.10;;;4.50;99.90;;;;;;4836732;29;20033;-88
2023/01/20 15:21:37;;;;;;;0.10;0.10;;;;;;;;;;4837378;29;20032;-87
2023/01/20 15:24:26;;;;;;;0.00;0.00;;;4.40;99.90;;;;;;4835107;29;20033;-87
2023/01/20 15:26:54;;;;;;;0.10;0.10;;;4.40;99.90;;;;;;4855260;29;20034;-88
2023/01/20 15:29:20;;;;;;;0.10;0.10;;;;;;;;;;4838455;29;20342;-87
2023/01/20 15:31:45;;;;;;;0.10;0.10;;;;;;;;;;4854159;29;20029;-87
2023/01/20 15:34:11;;;;;;;0.10;0.10;;;4.30;99.90;;;;;;4839174;29;20045;-88
2023/01/20 15:36:38;;;;;;;0.00;0.00;;;4.20;99.90;;;;;;4835354;29;20021;-88
2023/01/20 15:39:09;;;;;;;0.10;0.10;;;4.20;99.90;;;;;;4837738;29;20033;-86
2023/01/20 15:41:35;;;;;;;0.10;0.10;;;;;;;;;;4857255;29;20161;-89
2023/01/20 15:44:01;;;;;;;0.10;0.10;;;;;;;;;;4839021;29;20116;-87
2023/01/20 15:46:27;;;;;;;0.10;0.10;;;4.10;99.90;;;;;;4835770;29;20029;-88
2023/01/20 15:48:53;;;;;;;0.10;0.10;;;;;;;;;;4828363;29;20410;-88
2023/01/20 15:51:19;;;;;;;0.10;0.10;;;4.00;99.90;;;;;;4841671;29;20030;-87
2023/01/20 15:53:45;;;;;;;0.10;0.10;;;4.10;99.90;;;;;;4839670;29;20037;-87
2023/01/20 15:56:18;;;;;;;0.10;0.10;;;4.20;99.90;;;;;;4838658;29;20036;-88
2023/01/20 15:58:44;;;;;;;0.10;0.10;;;;;;;;;;4840382;29;20035;-88
2023/01/20 16:01:13;;;;;;;0.00;0.00;;;4.10;99.90;;;;;;4842314;29;20042;-87
2023/01/20 16:03:39;;;;;;;0.10;0.10;;;;;;;;;;4836423;29;20038;-89
2023/01/20 16:06:14;;;;;;;0.10;0.10;;;4.10;99.90;;;;;;4852513;29;20034;-87
2023/01/20 16:08:40;;;;;;;0.10;0.10;;;4.10;99.90;;;;;;4839764;29;20041;-88
2023/01/20 16:11:07;;;;;;;0.10;0.10;;;;;;;;;;4834313;29;20042;-87
2023/01/20 16:13:33;;;;;;;0.10;0.10;;;4.00;99.90;;;;;;4855391;29;20033;-88
2023/01/20 16:16:00;;;;;;;0.10;0.10;;;4.00;99.90;;;;;;4852502;29;20068;-87
2023/01/20 16:18:26;;;;;;;0.10;0.10;;;3.90;99.90;;;;;;4847155;29;20414;-89
2023/01/20 16:20:52;;;;;;;0.10;0.10;;;3.90;99.90;;;;;;4836632;29;20116;-88
